createdAt,value
2018-12-11T00:01:14.186Z,3.13
2018-12-11T00:03:42.340Z,2.70
2018-12-11T00:06:10.554Z,2.50
2018-12-11T00:08:38.695Z,2.97
2018-12-11T00:11:06.877Z,3.07
2018-12-11T00:13:35.021Z,2.70
2018-12-11T00:16:03.239Z,3.13
2018-12-11T00:18:32.049Z,2.87
2018-12-11T00:21:00.198Z,2.23
2018-12-11T00:23:28.411Z,1.50
2018-12-11T00:25:56.582Z,2.60
2018-12-11T00:28:24.743Z,2.10
2018-12-11T00:30:52.878Z,2.93
2018-12-11T00:33:21.192Z,1.60
2018-12-11T00:35:49.329Z,2.33
2018-12-11T00:38:17.531Z,3.67
2018-12-11T00:40:45.737Z,2.47
2018-12-11T00:43:13.914Z,1.63
2018-12-11T00:45:42.052Z,1.50
2018-12-11T00:48:10.205Z,1.50
2018-12-11T00:50:38.429Z,1.60
2018-12-11T00:53:06.633Z,2.07
2018-12-11T00:55:34.767Z,1.80
2018-12-11T00:58:03.734Z,1.60
2018-12-11T01:00:31.930Z,2.00
2018-12-11T01:03:00.075Z,1.57
2018-12-11T01:05:28.329Z,1.90
2018-12-11T01:08:02.971Z,1.37
2018-12-11T01:10:31.106Z,1.27
2018-12-11T01:12:59.319Z,1.70
2018-12-11T01:15:27.444Z,1.40
2018-12-11T01:17:55.910Z,1.27
2018-12-11T01:20:24.132Z,1.50
2018-12-11T01:22:52.284Z,1.70
2018-12-11T01:25:20.411Z,1.77
2018-12-11T01:27:48.535Z,1.70
2018-12-11T01:30:16.675Z,1.27
2018-12-11T01:32:44.879Z,1.17
2018-12-11T01:35:13.003Z,1.70
2018-12-11T01:37:41.151Z,1.20
2018-12-11T01:40:09.342Z,1.63
2018-12-11T01:42:37.474Z,1.60
2018-12-11T01:45:06.186Z,1.60
2018-12-11T01:47:34.910Z,1.27
2018-12-11T01:50:03.459Z,1.17
2018-12-11T01:52:31.752Z,1.30
2018-12-11T01:54:59.966Z,1.63
2018-12-11T01:57:28.101Z,1.60
2018-12-11T01:59:56.291Z,2.23
2018-12-11T02:02:24.656Z,1.33
2018-12-11T02:04:52.791Z,1.57
2018-12-11T02:07:20.925Z,1.57
2018-12-11T02:09:49.090Z,1.33
2018-12-11T02:12:17.279Z,1.12
2018-12-11T02:14:45.426Z,1.30
2018-12-11T02:17:13.566Z,1.50
2018-12-11T02:19:41.689Z,1.30
2018-12-11T02:22:09.850Z,1.20
2018-12-11T02:24:38.109Z,1.87
2018-12-11T02:27:06.234Z,1.10
2018-12-11T02:29:34.386Z,1.30
2018-12-11T02:32:02.569Z,1.10
2018-12-11T02:34:30.808Z,1.40
2018-12-11T02:36:59.038Z,0.97
2018-12-11T02:39:27.229Z,1.73
2018-12-11T02:41:55.621Z,1.30
2018-12-11T02:44:23.842Z,1.20
2018-12-11T02:46:52.014Z,1.70
2018-12-11T02:49:20.147Z,1.60
2018-12-11T02:51:48.428Z,1.80
2018-12-11T02:54:16.584Z,1.27
2018-12-11T02:56:45.064Z,1.20
2018-12-11T02:59:13.198Z,1.30
2018-12-11T03:01:41.340Z,1.10
2018-12-11T03:04:09.691Z,1.10
2018-12-11T03:06:37.938Z,1.30
2018-12-11T03:09:08.035Z,1.50
2018-12-11T03:11:37.168Z,1.22
2018-12-11T03:14:05.396Z,1.70
2018-12-11T03:16:33.650Z,1.57
2018-12-11T03:19:01.802Z,0.90
2018-12-11T03:21:29.936Z,1.63
2018-12-11T03:23:58.090Z,1.60
2018-12-11T03:26:26.320Z,1.10
2018-12-11T03:28:54.459Z,1.20
2018-12-11T03:31:22.821Z,1.23
2018-12-11T03:33:50.999Z,1.37
2018-12-11T03:36:19.554Z,1.50
2018-12-11T03:38:47.807Z,1.20
2018-12-11T03:41:16.269Z,1.05
2018-12-11T03:43:44.406Z,1.40
2018-12-11T03:46:12.647Z,1.40
2018-12-11T03:48:40.907Z,1.15
2018-12-11T03:51:09.297Z,1.00
2018-12-11T03:53:38.192Z,1.20
2018-12-11T03:56:06.316Z,1.37
2018-12-11T03:58:34.646Z,1.43
2018-12-11T04:01:02.806Z,1.17
2018-12-11T04:03:30.930Z,2.70
2018-12-11T04:05:59.161Z,1.73
2018-12-11T04:08:27.295Z,3.00
2018-12-11T04:10:55.455Z,1.00
2018-12-11T04:13:23.645Z,1.75
2018-12-11T04:15:51.777Z,2.52
2018-12-11T04:18:19.896Z,1.20
2018-12-11T04:20:48.158Z,1.10
2018-12-11T04:23:16.319Z,1.60
2018-12-11T04:25:44.479Z,1.17
2018-12-11T04:28:12.741Z,1.10
2018-12-11T04:30:40.973Z,1.10
2018-12-11T04:33:09.430Z,1.40
2018-12-11T04:35:37.575Z,1.50
2018-12-11T04:38:05.807Z,1.10
2018-12-11T04:40:33.974Z,1.70
2018-12-11T04:43:02.099Z,1.33
2018-12-11T04:45:30.263Z,1.37
2018-12-11T04:47:58.471Z,1.20
2018-12-11T04:50:26.633Z,1.20
2018-12-11T04:52:54.806Z,1.73
2018-12-11T04:55:23.105Z,1.70
2018-12-11T04:57:51.266Z,1.93
2018-12-11T05:00:19.673Z,2.00
2018-12-11T05:02:47.891Z,1.50
2018-12-11T05:05:16.173Z,1.53
2018-12-11T05:07:44.308Z,1.57
2018-12-11T05:10:12.612Z,1.40
2018-12-11T05:12:40.729Z,1.30
2018-12-11T05:15:09.001Z,2.77
2018-12-11T05:17:37.129Z,1.60
2018-12-11T05:20:05.579Z,1.20
2018-12-11T05:22:33.774Z,1.50
2018-12-11T05:25:01.935Z,1.40
2018-12-11T05:27:30.109Z,1.53
2018-12-11T05:29:58.240Z,1.50
2018-12-11T05:32:26.866Z,1.20
2018-12-11T05:34:55.020Z,1.17
2018-12-11T05:37:30.004Z,1.30
2018-12-11T05:39:58.163Z,2.03
2018-12-11T05:42:26.298Z,1.87
2018-12-11T05:44:54.487Z,1.20
2018-12-11T05:47:22.614Z,1.90
2018-12-11T05:49:50.759Z,1.40
2018-12-11T05:52:19.013Z,1.60
2018-12-11T05:54:47.408Z,2.70
2018-12-11T05:57:15.613Z,1.80
2018-12-11T05:59:43.739Z,2.03
2018-12-11T06:02:12.492Z,1.82
2018-12-11T06:04:40.733Z,1.73
2018-12-11T06:07:08.876Z,2.17
2018-12-11T06:09:37.061Z,1.70
2018-12-11T06:12:05.382Z,2.02
2018-12-11T06:14:33.522Z,1.73
2018-12-11T06:17:01.734Z,1.93
2018-12-11T06:19:29.925Z,2.37
2018-12-11T06:21:58.285Z,1.80
2018-12-11T06:24:26.486Z,1.63
2018-12-11T06:26:54.609Z,2.20
2018-12-11T06:29:22.980Z,1.60
2018-12-11T06:31:51.134Z,2.30
2018-12-11T06:34:19.323Z,2.20
2018-12-11T06:36:47.507Z,2.23
2018-12-11T06:39:15.678Z,2.07
2018-12-11T06:41:43.816Z,2.23
2018-12-11T06:44:12.085Z,2.70
2018-12-11T06:46:40.279Z,1.83
2018-12-11T06:49:08.542Z,2.00
2018-12-11T06:51:37.323Z,2.33
2018-12-11T06:54:05.537Z,2.67
2018-12-11T06:56:33.657Z,2.10
2018-12-11T06:59:01.781Z,2.30
2018-12-11T07:01:29.962Z,1.87
2018-12-11T07:03:58.169Z,2.33
2018-12-11T07:06:26.443Z,2.30
2018-12-11T07:08:54.675Z,2.90
2018-12-11T07:11:22.937Z,2.10
2018-12-11T07:13:51.061Z,1.57
2018-12-11T07:16:19.200Z,2.33
2018-12-11T07:18:47.330Z,2.00
2018-12-11T07:21:15.469Z,2.30
2018-12-11T07:23:44.398Z,2.00
2018-12-11T07:26:12.651Z,3.07
2018-12-11T07:28:40.856Z,1.87
2018-12-11T07:31:09.031Z,2.00
2018-12-11T07:33:37.282Z,2.83
2018-12-11T07:36:05.602Z,3.57
2018-12-11T07:38:34.737Z,2.20
2018-12-11T07:41:03.106Z,2.80
2018-12-11T07:43:31.234Z,2.20
2018-12-11T07:45:59.386Z,1.90
2018-12-11T07:48:27.512Z,2.47
2018-12-11T07:50:55.642Z,2.63
2018-12-11T07:53:23.786Z,2.10
2018-12-11T07:55:52.066Z,2.10
2018-12-11T07:58:20.258Z,2.83
2018-12-11T08:00:48.398Z,3.47
2018-12-11T08:03:16.520Z,3.33
2018-12-11T08:05:45.602Z,2.00
2018-12-11T08:08:18.801Z,2.30
2018-12-11T08:10:47.039Z,2.57
2018-12-11T08:13:15.861Z,2.77
2018-12-11T08:15:43.990Z,2.23
2018-12-11T08:18:12.241Z,1.80
2018-12-11T08:20:40.398Z,1.80
2018-12-11T08:23:08.611Z,2.53
2018-12-11T08:25:36.969Z,2.47
2018-12-11T08:28:05.110Z,2.55
2018-12-11T08:30:33.251Z,2.50
2018-12-11T08:33:01.462Z,2.70
2018-12-11T08:35:29.591Z,2.00
2018-12-11T08:37:57.810Z,1.80
2018-12-11T08:40:25.941Z,3.23
2018-12-11T08:42:54.086Z,2.30
2018-12-11T08:45:22.242Z,2.33
2018-12-11T08:47:50.374Z,2.07
2018-12-11T08:50:18.522Z,3.63
2018-12-11T08:52:47.107Z,2.90
2018-12-11T08:55:15.282Z,1.80
2018-12-11T08:57:43.506Z,2.00
2018-12-11T09:00:11.906Z,2.10
2018-12-11T09:02:40.050Z,1.97
2018-12-11T09:05:08.210Z,2.10
2018-12-11T09:07:36.509Z,2.60
2018-12-11T09:10:05.777Z,1.50
2018-12-11T09:12:34.119Z,2.00
2018-12-11T09:15:02.267Z,1.93
2018-12-11T09:17:30.435Z,2.07
2018-12-11T09:19:58.595Z,2.23
2018-12-11T09:22:26.727Z,2.10
2018-12-11T09:24:54.951Z,2.63
2018-12-11T09:27:23.122Z,2.10
2018-12-11T09:29:51.289Z,2.00
2018-12-11T09:32:19.468Z,1.90
2018-12-11T09:34:48.470Z,1.95
2018-12-11T09:37:16.645Z,2.50
2018-12-11T09:39:45.859Z,1.73
2018-12-11T09:42:14.301Z,2.00
2018-12-11T09:44:42.430Z,2.50
2018-12-11T09:47:10.584Z,2.20
2018-12-11T09:49:38.930Z,2.62
2018-12-11T09:52:07.158Z,2.00
2018-12-11T09:54:35.298Z,2.13
2018-12-11T09:57:03.611Z,2.63
2018-12-11T09:59:31.885Z,2.33
2018-12-11T10:02:00.068Z,1.50
2018-12-11T10:04:28.354Z,2.20
2018-12-11T10:06:56.740Z,2.10
2018-12-11T10:09:24.967Z,2.20
2018-12-11T10:11:53.114Z,2.70
2018-12-11T10:14:21.253Z,2.20
2018-12-11T10:16:49.771Z,2.20
2018-12-11T10:19:17.902Z,1.37
2018-12-11T10:21:46.130Z,2.07
2018-12-11T10:24:14.257Z,2.30
2018-12-11T10:26:42.467Z,3.90
2018-12-11T10:29:10.644Z,2.77
2018-12-11T10:31:38.797Z,2.90
2018-12-11T10:34:06.952Z,2.27
2018-12-11T10:36:35.202Z,2.73
2018-12-11T10:39:04.659Z,2.35
2018-12-11T10:41:32.860Z,3.03
2018-12-11T10:44:00.993Z,2.27
2018-12-11T10:46:33.740Z,2.20
2018-12-11T10:48:59.273Z,2.50
2018-12-11T10:51:27.566Z,2.20
2018-12-11T10:53:55.756Z,2.33
2018-12-11T10:56:24.043Z,2.30
2018-12-11T10:58:52.258Z,2.33
2018-12-11T11:01:25.709Z,3.22
2018-12-11T11:03:53.839Z,1.87
2018-12-11T11:06:22.264Z,2.00
2018-12-11T11:08:50.588Z,1.85
2018-12-11T11:11:18.775Z,2.50
2018-12-11T11:13:47.057Z,1.70
2018-12-11T11:16:15.534Z,1.50
2018-12-11T11:18:44.873Z,2.40
2018-12-11T11:21:13.266Z,2.35
2018-12-11T11:23:41.485Z,2.57
2018-12-11T11:26:09.647Z,2.03
2018-12-11T11:28:37.790Z,2.23
2018-12-11T11:31:06.109Z,2.10
2018-12-11T11:33:34.266Z,2.30
2018-12-11T11:36:02.473Z,2.10
2018-12-11T11:38:30.689Z,2.20
2018-12-11T11:40:58.826Z,1.90
2018-12-11T11:43:26.953Z,2.05
2018-12-11T11:45:55.095Z,1.85
2018-12-11T11:48:23.219Z,1.70
2018-12-11T11:50:51.378Z,2.00
2018-12-11T11:53:19.615Z,1.70
2018-12-11T11:55:47.754Z,1.90
2018-12-11T11:58:15.885Z,1.90
2018-12-11T12:00:44.041Z,2.80
2018-12-11T12:03:12.337Z,2.57
2018-12-11T12:05:40.566Z,1.93
2018-12-11T12:08:08.742Z,2.53
2018-12-11T12:10:37.022Z,2.30
2018-12-11T12:13:05.236Z,2.42
2018-12-11T12:15:33.558Z,1.60
2018-12-11T12:18:01.858Z,1.83
2018-12-11T12:20:30.026Z,1.90
2018-12-11T12:22:58.171Z,1.93
2018-12-11T12:25:26.306Z,2.00
2018-12-11T12:27:55.010Z,2.17
2018-12-11T12:30:25.127Z,2.30
2018-12-11T12:32:53.316Z,2.10
2018-12-11T12:35:21.455Z,2.23
2018-12-11T12:37:49.616Z,1.63
2018-12-11T12:40:17.770Z,2.10
2018-12-11T12:42:45.897Z,2.10
2018-12-11T12:45:14.125Z,1.83
2018-12-11T12:47:42.317Z,2.90
2018-12-11T12:50:10.537Z,2.37
2018-12-11T12:52:38.708Z,2.17
2018-12-11T12:55:06.986Z,2.55
2018-12-11T12:57:35.114Z,2.80
2018-12-11T13:00:03.353Z,3.10
2018-12-11T13:02:31.488Z,2.93
2018-12-11T13:04:59.655Z,3.07
2018-12-11T13:07:27.822Z,2.57
2018-12-11T13:09:56.717Z,3.15
2018-12-11T13:12:25.031Z,2.33
2018-12-11T13:14:53.147Z,2.30
2018-12-11T13:17:21.327Z,2.20
2018-12-11T13:19:49.454Z,2.80
2018-12-11T13:22:17.669Z,2.00
2018-12-11T13:24:45.802Z,2.20
2018-12-11T13:27:14.037Z,2.10
2018-12-11T13:29:42.214Z,2.03
2018-12-11T13:32:10.526Z,2.12
2018-12-11T13:34:38.695Z,2.12
2018-12-11T13:37:06.918Z,1.55
2018-12-11T13:39:35.067Z,1.80
2018-12-11T13:42:03.310Z,1.90
2018-12-11T13:44:31.546Z,2.07
2018-12-11T13:46:59.777Z,2.73
2018-12-11T13:49:28.482Z,2.80
2018-12-11T13:51:56.634Z,2.40
2018-12-11T13:54:24.778Z,2.60
2018-12-11T13:56:53.205Z,1.87
2018-12-11T13:59:21.404Z,2.20
2018-12-11T14:01:49.531Z,3.50
2018-12-11T14:04:17.708Z,2.60
2018-12-11T14:06:46.001Z,3.02
2018-12-11T14:09:19.805Z,2.60
2018-12-11T14:11:48.046Z,3.57
2018-12-11T14:14:16.203Z,3.25
2018-12-11T14:16:44.545Z,3.70
2018-12-11T14:19:12.692Z,3.17
2018-12-11T14:21:40.969Z,2.73
2018-12-11T14:24:09.289Z,2.77
2018-12-11T14:26:37.477Z,3.83
2018-12-11T14:29:05.802Z,3.20
2018-12-11T14:31:34.079Z,2.70
2018-12-11T14:34:02.341Z,3.17
2018-12-11T14:36:30.588Z,2.30
2018-12-11T14:38:58.748Z,2.63
2018-12-11T14:41:26.953Z,2.87
2018-12-11T14:43:55.100Z,2.90
2018-12-11T14:46:23.246Z,2.50
2018-12-11T14:48:51.666Z,3.40
2018-12-11T14:51:19.804Z,2.33
2018-12-11T14:53:47.958Z,3.50
2018-12-11T14:56:16.748Z,2.83
2018-12-11T14:58:45.001Z,2.50
2018-12-11T15:01:13.254Z,2.90
2018-12-11T15:03:41.554Z,2.83
2018-12-11T15:06:09.916Z,4.15
2018-12-11T15:08:38.074Z,2.77
2018-12-11T15:11:06.213Z,2.70
2018-12-11T15:13:34.341Z,4.00
2018-12-11T15:16:02.556Z,3.83
2018-12-11T15:18:30.702Z,3.43
2018-12-11T15:20:58.930Z,3.27
2018-12-11T15:23:27.077Z,3.60
2018-12-11T15:25:55.265Z,5.00
2018-12-11T15:28:23.405Z,3.67
2018-12-11T15:31:01.622Z,3.97
2018-12-11T15:33:29.779Z,3.60
2018-12-11T15:35:57.903Z,4.00
2018-12-11T15:38:26.061Z,3.98
2018-12-11T15:40:54.218Z,3.40
2018-12-11T15:43:22.986Z,3.33
2018-12-11T15:45:51.122Z,4.50
2018-12-11T15:48:19.397Z,5.62
2018-12-11T15:50:47.651Z,5.87
2018-12-11T15:53:15.996Z,7.00
2018-12-11T15:55:44.202Z,4.03
2018-12-11T15:58:12.350Z,4.40
2018-12-11T16:00:40.490Z,4.17
2018-12-11T16:03:08.781Z,5.95
2018-12-11T16:05:36.916Z,3.67
2018-12-11T16:08:05.154Z,4.60
2018-12-11T16:10:34.042Z,4.55
2018-12-11T16:13:02.169Z,5.60
2018-12-11T16:15:30.350Z,3.50
2018-12-11T16:17:58.469Z,5.23
2018-12-11T16:20:26.623Z,3.97
2018-12-11T16:22:54.773Z,5.80
2018-12-11T16:25:23.111Z,5.93
2018-12-11T16:27:51.357Z,6.63
2018-12-11T16:30:19.506Z,5.70
2018-12-11T16:32:47.798Z,5.43
2018-12-11T16:35:15.919Z,5.53
2018-12-11T16:37:44.354Z,6.17
2018-12-11T16:40:13.014Z,5.50
2018-12-11T16:42:41.171Z,4.63
2018-12-11T16:45:09.396Z,5.70
2018-12-11T16:47:37.537Z,4.20
2018-12-11T16:50:05.908Z,7.17
2018-12-11T16:52:34.045Z,5.63
2018-12-11T16:55:02.177Z,5.83
2018-12-11T16:57:30.314Z,5.47
2018-12-11T16:59:58.469Z,6.50
2018-12-11T17:02:26.669Z,5.53
2018-12-11T17:04:54.850Z,7.23
2018-12-11T17:07:23.289Z,6.63
2018-12-11T17:09:51.400Z,5.40
2018-12-11T17:12:19.709Z,6.00
2018-12-11T17:14:47.814Z,4.17
2018-12-11T17:17:16.071Z,4.77
2018-12-11T17:19:44.205Z,6.20
2018-12-11T17:22:12.379Z,6.93
2018-12-11T17:24:40.522Z,5.50
2018-12-11T17:27:08.934Z,6.62
2018-12-11T17:29:37.081Z,5.00
2018-12-11T17:32:05.215Z,6.63
2018-12-11T17:34:33.338Z,6.50
2018-12-11T17:37:01.487Z,6.97
2018-12-11T17:39:29.644Z,25.50
2018-12-11T17:41:57.758Z,13.37
2018-12-11T17:44:25.950Z,7.77
2018-12-11T17:46:54.186Z,7.53
2018-12-11T17:49:22.362Z,5.73
2018-12-11T17:51:50.478Z,6.90
2018-12-11T17:54:18.781Z,7.25
2018-12-11T17:56:47.178Z,5.70
2018-12-11T17:59:15.479Z,4.97
2018-12-11T18:01:45.316Z,5.50
2018-12-11T18:04:13.477Z,6.03
2018-12-11T18:06:41.733Z,7.30
2018-12-11T18:09:10.273Z,6.00
2018-12-11T18:11:38.457Z,7.50
2018-12-11T18:14:06.604Z,5.93
2018-12-11T18:16:34.751Z,5.00
2018-12-11T18:19:02.895Z,6.67
2018-12-11T18:21:31.030Z,5.23
2018-12-11T18:23:59.162Z,4.37
2018-12-11T18:26:27.422Z,6.70
2018-12-11T18:28:55.619Z,6.55
2018-12-11T18:31:23.796Z,6.97
2018-12-11T18:33:52.091Z,5.13
2018-12-11T18:36:20.228Z,6.40
2018-12-11T18:38:48.370Z,5.60
2018-12-11T18:41:16.573Z,5.47
2018-12-11T18:43:44.699Z,8.87
2018-12-11T18:46:12.925Z,7.10
2018-12-11T18:48:41.450Z,6.00
2018-12-11T18:51:09.752Z,5.07
2018-12-11T18:53:37.876Z,7.40
2018-12-11T18:56:06.208Z,5.50
2018-12-11T18:58:34.503Z,6.17
2018-12-11T19:01:02.754Z,7.03
2018-12-11T19:03:30.904Z,5.63
2018-12-11T19:05:59.033Z,7.43
2018-12-11T19:08:27.275Z,6.83
2018-12-11T19:10:55.406Z,6.87
2018-12-11T19:13:23.553Z,8.00
2018-12-11T19:15:51.988Z,7.77
2018-12-11T19:18:20.319Z,7.83
2018-12-11T19:20:48.534Z,8.80
2018-12-11T19:24:25.458Z,7.90
2018-12-11T19:26:53.682Z,6.40
2018-12-11T19:29:21.897Z,7.27
2018-12-11T19:31:50.045Z,8.60
2018-12-11T19:34:18.188Z,6.40
2018-12-11T19:36:46.305Z,5.30
2018-12-11T19:39:14.454Z,7.67
2018-12-11T19:41:43.165Z,7.62
2018-12-11T19:44:11.300Z,5.80
2018-12-11T19:46:39.429Z,8.70
2018-12-11T19:49:07.574Z,6.30
2018-12-11T19:51:35.718Z,7.17
2018-12-11T19:54:04.013Z,7.40
2018-12-11T19:56:32.180Z,6.40
2018-12-11T19:59:00.329Z,6.63
2018-12-11T20:01:28.798Z,8.30
2018-12-11T20:03:57.243Z,7.53
2018-12-11T20:06:25.445Z,5.00
2018-12-11T20:08:53.565Z,6.00
2018-12-11T20:11:21.823Z,6.73
2018-12-11T20:13:50.122Z,6.35
2018-12-11T20:16:18.282Z,7.40
2018-12-11T20:18:46.405Z,6.50
2018-12-11T20:21:14.579Z,6.47
2018-12-11T20:23:42.725Z,8.03
2018-12-11T20:26:10.990Z,6.80
2018-12-11T20:28:39.246Z,7.83
2018-12-11T20:31:07.376Z,8.27
2018-12-11T20:33:35.831Z,7.67
2018-12-11T20:36:04.270Z,7.03
2018-12-11T20:38:32.501Z,8.23
2018-12-11T20:41:00.634Z,6.20
2018-12-11T20:43:30.122Z,7.40
2018-12-11T20:45:58.605Z,6.40
2018-12-11T20:48:27.120Z,8.40
2018-12-11T20:50:55.250Z,6.20
2018-12-11T20:53:23.407Z,6.97
2018-12-11T20:55:51.566Z,7.27
2018-12-11T20:58:19.910Z,7.10
2018-12-11T21:00:48.030Z,6.37
2018-12-11T21:03:16.190Z,7.80
2018-12-11T21:05:44.370Z,9.40
2018-12-11T21:08:12.645Z,7.90
2018-12-11T21:10:40.821Z,7.70
2018-12-11T21:13:08.964Z,11.97
2018-12-11T21:15:37.091Z,14.77
2018-12-11T21:18:05.258Z,12.07
2018-12-11T21:20:33.438Z,13.83
2018-12-11T21:23:01.591Z,11.47
2018-12-11T21:25:29.765Z,13.70
2018-12-11T21:27:57.940Z,9.90
2018-12-11T21:30:26.073Z,8.33
2018-12-11T21:32:54.305Z,7.80
2018-12-11T21:35:22.483Z,7.37
2018-12-11T21:37:50.631Z,7.83
2018-12-11T21:40:18.858Z,7.80
2018-12-11T21:42:47.001Z,5.87
2018-12-11T21:45:15.237Z,6.90
2018-12-11T21:47:43.410Z,7.93
2018-12-11T21:50:11.759Z,7.57
2018-12-11T21:52:39.922Z,9.48
2018-12-11T21:55:08.490Z,8.90
2018-12-11T21:57:36.986Z,8.77
2018-12-11T22:02:37.458Z,9.68
2018-12-11T22:05:06.165Z,9.10
2018-12-11T22:07:34.339Z,10.80
2018-12-11T22:10:02.475Z,8.65
2018-12-11T22:12:30.957Z,10.58
2018-12-11T22:14:59.098Z,10.20
2018-12-11T22:17:27.224Z,9.47
2018-12-11T22:19:55.355Z,9.67
2018-12-11T22:22:23.724Z,9.60
2018-12-11T22:24:51.910Z,8.60
2018-12-11T22:27:20.090Z,13.32
2018-12-11T22:29:48.279Z,11.10
2018-12-11T22:32:16.597Z,9.33
2018-12-11T22:34:44.755Z,9.50
2018-12-11T22:37:12.992Z,10.07
2018-12-11T22:39:41.161Z,9.70
2018-12-11T22:42:09.277Z,9.87
2018-12-11T22:44:37.536Z,9.17
2018-12-11T22:47:05.676Z,9.10
2018-12-11T22:49:34.021Z,9.30
2018-12-11T22:52:02.165Z,10.30
2018-12-11T22:54:30.375Z,8.43
2018-12-11T22:56:58.551Z,9.60
2018-12-11T22:59:26.743Z,7.97
2018-12-11T23:01:54.951Z,10.50
2018-12-11T23:04:23.236Z,8.70
2018-12-11T23:06:51.389Z,10.78
2018-12-11T23:09:19.587Z,9.10
2018-12-11T23:11:47.834Z,9.77
2018-12-11T23:14:15.999Z,6.90
2018-12-11T23:16:44.134Z,8.00
2018-12-11T23:19:12.282Z,7.20
2018-12-11T23:21:40.429Z,8.33
2018-12-11T23:24:08.615Z,7.10
2018-12-11T23:26:36.742Z,8.90
2018-12-11T23:29:05.073Z,8.17
2018-12-11T23:31:33.308Z,7.20
2018-12-11T23:34:01.454Z,7.73
2018-12-11T23:36:29.571Z,6.33
2018-12-11T23:38:57.722Z,5.70
2018-12-11T23:41:26.144Z,7.43
2018-12-11T23:43:54.368Z,8.45
2018-12-11T23:46:22.578Z,8.90
2018-12-11T23:48:51.946Z,8.03
2018-12-11T23:51:20.065Z,6.47
2018-12-11T23:53:48.240Z,8.27
2018-12-11T23:56:16.391Z,7.67
2018-12-11T23:58:45.008Z,7.80
